Time;durP1;ratioP1;P1;durP2;ratioP2;P2;SDS_P1;SDS_P2;PMS_P1;PMS_P2;Temp;Humidity;BMP_temperature;BMP_pressure;BME280_temperature;BME280_humidity;BME280_pressure;Samples;Min_cycle;Max_cycle;Signal;HPM_P1;HPM_P2
2022/06/01 00:00:00;;;;;;;3.30;2.30;;;;;;;13.63;76.79;99848.14;107214;1277;22524;-58
2022/06/01 00:02:27;;;;;;;1.70;1.60;;;;;;;13.64;76.61;99843.59;108310;1276;138269;-58
2022/06/01 00:04:54;;;;;;;2.80;1.90;;;;;;;13.67;76.51;99844.98;109196;1276;22530;-58
2022/06/01 00:07:23;;;;;;;1.70;1.40;;;;;;;13.69;76.23;99844.06;109003;1276;139504;-57
2022/06/01 00:09:50;;;;;;;3.00;1.90;;;;;;;13.70;75.84;99839.55;109275;1275;22483;-57
2022/06/01 00:12:16;;;;;;;2.60;1.90;;;;;;;13.72;75.65;99837.31;109209;1277;23357;-57
2022/06/01 00:14:43;;;;;;;1.70;1.50;;;;;;;13.73;75.32;99835.73;109070;1276;139110;-57
2022/06/01 00:17:10;;;;;;;1.90;1.40;;;;;;;13.75;74.96;99835.84;105574;1277;22549;-57
2022/06/01 00:19:37;;;;;;;3.60;1.40;;;;;;;13.76;74.64;99834.58;104326;1277;353933;-57
2022/06/01 00:23:02;;;;;;;2.90;1.50;;;;;;;13.79;74.57;99835.52;101781;1308;545261;-58
2022/06/01 00:25:29;;;;;;;1.70;1.50;;;;;;;13.76;74.15;99838.64;103967;1283;137772;-58
2022/06/01 00:27:55;;;;;;;2.30;1.50;;;;;;;13.76;74.06;99839.73;104013;1286;22782;-58
2022/06/01 00:30:22;;;;;;;1.90;1.70;;;;;;;13.73;73.88;99838.20;103860;1287;22583;-57
2022/06/01 00:32:49;;;;;;;1.80;1.50;;;;;;;13.70;73.64;99837.44;103723;1287;139907;-57
2022/06/01 00:35:18;;;;;;;2.50;1.60;;;;;;;13.68;73.58;99840.27;103868;1287;22933;-57
2022/06/01 00:37:44;;;;;;;1.50;1.40;;;;;;;13.64;73.58;99842.30;108213;1283;192576;-57
2022/06/01 00:40:12;;;;;;;2.60;1.80;;;;;;;13.61;73.53;99836.91;108468;1283;22460;-57
2022/06/01 00:42:40;;;;;;;2.40;1.60;;;;;;;13.57;73.58;99842.48;108375;1284;22545;-58
2022/06/01 00:45:08;;;;;;;2.00;1.40;;;;;;;13.55;73.43;99842.37;108215;1286;137485;-58
2022/06/01 00:47:35;;;;;;;1.70;1.60;;;;;;;13.53;73.50;99849.11;108327;1286;23258;-57
2022/06/01 00:50:28;;;;;;;2.00;1.70;;;;;;;13.52;73.54;99848.94;108232;1286;138317;-57
2022/06/01 00:53:01;;;;;;;3.80;1.50;;;;;;;13.50;73.51;99850.30;108266;1286;22393;-57
2022/06/01 00:55:32;;;;;;;1.60;1.40;;;;;;;13.50;73.63;99849.54;108110;1286;139842;-58
2022/06/01 00:58:09;;;;;;;1.50;1.40;;;;;;;13.49;73.80;99847.07;108218;1286;23347;-57
2022/06/01 01:00:40;;;;;;;2.40;1.80;;;;;;;13.48;73.61;99851.01;108211;1286;22474;-58
2022/06/01 01:03:10;;;;;;;1.90;1.70;;;;;;;13.49;73.82;99850.61;108097;1286;138872;-58
2022/06/01 01:05:39;;;;;;;2.40;1.50;;;;;;;13.48;73.61;99850.30;108144;1285;22431;-58
2022/06/01 01:08:06;;;;;;;1.50;1.40;;;;;;;13.49;73.52;99852.05;107912;1286;139832;-57
2022/06/01 01:10:33;;;;;;;3.00;1.50;;;;;;;13.48;73.41;99850.89;108172;1286;22503;-57
2022/06/01 01:13:01;;;;;;;2.30;1.80;;;;;;;13.48;73.36;99851.61;108204;1286;22440;-57
2022/06/01 01:15:32;;;;;;;2.30;1.40;;;;;;;13.48;73.55;99851.33;108069;1285;138203;-58
2022/06/01 01:17:59;;;;;;;2.10;1.40;;;;;;;13.48;73.20;99854.99;108212;1285;22470;-58
2022/06/01 01:20:26;;;;;;;7.60;1.70;;;;;;;13.48;72.96;99856.27;108180;1286;139480;-58
2022/06/01 01:23:18;;;;;;;3.70;1.40;;;;;;;13.48;72.94;99857.73;107863;1289;22586;-57
2022/06/01 01:25:45;;;;;;;4.10;2.00;;;;;;;13.48;72.53;99853.19;107901;1287;138023;-57
2022/06/01 01:28:11;;;;;;;4.90;1.60;;;;;;;13.46;72.36;99857.07;108237;1286;22551;-57
2022/06/01 01:30:38;;;;;;;2.70;1.60;;;;;;;13.44;72.21;99852.95;108121;1286;22325;-57
2022/06/01 01:33:07;;;;;;;3.80;1.70;;;;;;;13.45;72.13;99854.16;108136;1286;137979;-57
2022/06/01 01:35:34;;;;;;;2.30;1.90;;;;;;;13.44;72.15;99854.27;108173;1284;23596;-57
2022/06/01 01:38:03;;;;;;;2.20;1.40;;;;;;;13.44;72.15;99856.89;108102;1286;137883;-56
2022/06/01 01:40:29;;;;;;;2.70;1.60;;;;;;;13.43;71.97;99857.38;108140;1285;22448;-57
2022/06/01 01:42:56;;;;;;;1.90;1.60;;;;;;;13.43;71.81;99858.38;108257;1286;22446;-56
2022/06/01 01:45:25;;;;;;;2.40;1.90;;;;;;;13.42;71.74;99859.08;107754;1288;138776;-56
2022/06/01 01:47:52;;;;;;;2.50;1.70;;;;;;;13.41;71.78;99857.39;108299;1286;22430;-58
2022/06/01 01:50:19;;;;;;;1.80;1.50;;;;;;;13.39;71.60;99853.06;108081;1286;138795;-58
2022/06/01 01:52:46;;;;;;;3.00;1.70;;;;;;;13.37;71.43;99850.09;108077;1286;22513;-58
2022/06/01 01:55:20;;;;;;;2.10;1.60;;;;;;;13.35;71.44;99851.29;107965;1288;22575;-58
2022/06/01 01:57:53;;;;;;;1.80;1.60;;;;;;;13.34;71.44;99848.00;108157;1286;22468;-58
2022/06/01 02:00:57;;;;;;;2.90;1.50;;;;;;;13.33;70.94;99853.19;108250;1286;23558;-59
2022/06/01 02:03:29;;;;;;;2.80;1.70;;;;;;;13.31;70.60;99852.24;107275;1292;137916;-59
2022/06/01 02:06:14;;;;;;;2.40;1.50;;;;;;;13.30;70.31;99849.73;107225;1292;22482;-59
2022/06/01 02:09:00;;;;;;;1.30;1.20;;;;;;;13.28;70.03;99844.63;107153;1294;138979;-59
2022/06/01 02:14:16;;;;;;;3.70;1.60;;;;;;;13.29;69.21;99846.81;107288;1292;137509;-57
2022/06/01 02:16:46;;;;;;;1.30;1.20;;;;;;;13.28;68.57;99845.56;107449;1292;22505;-56
2022/06/01 02:19:18;;;;;;;1.40;1.30;;;;;;;13.27;68.23;99844.20;107362;1292;22492;-57
2022/06/01 02:21:44;;;;;;;1.60;1.50;;;;;;;13.26;68.13;99846.98;107428;1292;22511;-58
2022/06/01 02:24:11;;;;;;;6.20;1.60;;;;;;;13.26;67.97;99844.04;107429;1292;22623;-57
2022/06/01 02:26:38;;;;;;;1.40;1.30;;;;;;;13.25;68.00;99848.25;105419;1286;137881;-57
2022/06/01 02:29:09;;;;;;;2.00;1.30;;;;;;;13.24;67.89;99845.50;103959;1286;27274;-58
2022/06/01 02:31:36;;;;;;;3.00;1.70;;;;;;;13.24;67.91;99840.04;103913;1286;137272;-58
2022/06/01 02:34:03;;;;;;;2.00;1.50;;;;;;;13.24;67.87;99841.34;103709;1286;24335;-58
2022/06/01 02:36:30;;;;;;;2.00;1.60;;;;;;;13.23;67.54;99840.41;103908;1286;24024;-58
2022/06/01 02:38:57;;;;;;;4.20;1.60;;;;;;;13.22;67.75;99841.02;104270;1280;137764;-57
2022/06/01 02:44:09;;;;;;;1.70;1.50;;;;;;;13.22;67.75;99844.08;104516;1278;137561;-57
2022/06/01 02:46:36;;;;;;;1.80;1.50;;;;;;;13.24;67.89;99844.58;104582;1280;22550;-57
2022/06/01 02:49:04;;;;;;;1.80;1.70;;;;;;;13.26;67.98;99842.40;108956;1280;22548;-58
2022/06/01 02:51:30;;;;;;;1.90;1.30;;;;;;;13.28;67.74;99840.84;108764;1280;137454;-58
2022/06/01 02:53:57;;;;;;;1.60;1.50;;;;;;;13.31;67.73;99841.90;109089;1280;22523;-58
2022/06/01 02:56:25;;;;;;;1.70;1.50;;;;;;;13.36;67.74;99845.66;108837;1280;139720;-58
2022/06/01 02:58:52;;;;;;;3.60;2.30;;;;;;;13.40;68.05;99844.64;109042;1278;22513;-58
2022/06/01 03:01:19;;;;;;;2.20;2.00;;;;;;;13.44;67.81;99847.86;108862;1280;139784;-59
2022/06/01 03:03:47;;;;;;;3.50;1.60;;;;;;;13.49;67.87;99850.14;108760;1280;23208;-58
2022/06/01 03:06:14;;;;;;;2.80;1.60;;;;;;;13.53;67.70;99847.80;108989;1279;22456;-58
2022/06/01 03:08:41;;;;;;;2.40;1.60;;;;;;;13.58;67.78;99853.15;108681;1281;138138;-58
2022/06/01 03:11:09;;;;;;;3.30;2.10;;;;;;;13.62;67.89;99852.24;108948;1280;22491;-58
2022/06/01 03:13:36;;;;;;;2.40;1.70;;;;;;;13.67;67.86;99848.27;108723;1280;138088;-57
2022/06/01 03:16:03;;;;;;;1.80;1.60;;;;;;;13.70;67.88;99844.39;108992;1280;23363;-58
2022/06/01 03:18:31;;;;;;;3.70;1.90;;;;;;;13.74;67.87;99841.70;108888;1280;22459;-57
2022/06/01 03:20:58;;;;;;;3.50;1.80;;;;;;;13.78;67.87;99839.74;108789;1280;138931;-57
2022/06/01 03:23:25;;;;;;;3.30;1.90;;;;;;;13.81;67.93;99839.70;108971;1280;22459;-57
2022/06/01 03:25:52;;;;;;;1.90;1.40;;;;;;;13.84;67.85;99836.91;108885;1277;138040;-57
2022/06/01 03:28:19;;;;;;;4.20;1.80;;;;;;;13.89;68.09;99839.09;109052;1277;22459;-58
2022/06/01 03:30:46;;;;;;;2.40;1.90;;;;;;;13.92;68.34;99843.01;109030;1277;22433;-59
2022/06/01 03:33:13;;;;;;;4.00;1.80;;;;;;;13.94;68.33;99839.98;108877;1277;138388;-59
2022/06/01 03:35:40;;;;;;;4.80;2.10;;;;;;;13.99;68.14;99836.61;108183;1278;24241;-59
2022/06/01 03:38:07;;;;;;;2.70;2.10;;;;;;;14.02;68.42;99837.91;104482;1280;138712;-58
2022/06/01 03:40:35;;;;;;;2.20;1.90;;;;;;;14.07;68.55;99836.43;104500;1278;22573;-59
2022/06/01 03:43:02;;;;;;;4.40;1.90;;;;;;;14.13;68.58;99836.00;109063;1277;23095;-59
2022/06/01 03:48:14;;;;;;;2.10;1.90;;;;;;;14.28;68.36;99825.05;108982;1278;22237;-58
2022/06/01 03:50:41;;;;;;;4.10;2.00;;;;;;;14.36;68.46;99826.45;108761;1278;139191;-58
2022/06/01 03:53:08;;;;;;;2.50;2.10;;;;;;;14.43;68.22;99823.79;109040;1278;22554;-58
2022/06/01 03:55:36;;;;;;;5.10;2.20;;;;;;;14.51;67.99;99823.84;108856;1278;137997;-58
2022/06/01 03:58:03;;;;;;;2.90;2.10;;;;;;;14.60;67.86;99821.34;109071;1277;22318;-58
2022/06/01 04:00:30;;;;;;;6.10;2.20;;;;;;;14.67;67.88;99819.20;109026;1278;22461;-58
2022/06/01 04:02:57;;;;;;;2.80;2.40;;;;;;;14.72;67.73;99814.30;108913;1277;138735;-59
2022/06/01 04:05:24;;;;;;;4.50;2.10;;;;;;;14.78;67.67;99817.75;108960;1277;22439;-58
2022/06/01 04:07:51;;;;;;;2.80;2.00;;;;;;;14.83;67.77;99816.48;108863;1280;137285;-59
2022/06/01 04:10:20;;;;;;;4.40;2.10;;;;;;;14.88;67.80;99816.07;108960;1278;23657;-58
2022/06/01 04:12:47;;;;;;;3.50;2.10;;;;;;;14.93;67.68;99814.58;108987;1280;23317;-58
2022/06/01 04:15:14;;;;;;;4.10;2.30;;;;;;;14.96;67.58;99813.31;109018;1277;138725;-58
2022/06/01 04:17:41;;;;;;;3.40;1.90;;;;;;;14.99;67.52;99814.63;109140;1277;23114;-58
2022/06/01 04:20:09;;;;;;;2.90;2.00;;;;;;;15.03;67.33;99816.84;108879;1278;137727;-58
2022/06/01 04:22:38;;;;;;;4.50;2.00;;;;;;;15.06;67.27;99816.13;109191;1277;22508;-58
2022/06/01 04:25:06;;;;;;;3.20;2.10;;;;;;;15.11;67.22;99817.21;109155;1277;22466;-58
2022/06/01 04:27:32;;;;;;;2.50;2.10;;;;;;;15.16;67.22;99817.56;108943;1278;137526;-58
2022/06/01 04:29:59;;;;;;;3.40;2.00;;;;;;;15.23;67.00;99817.81;109164;1277;22457;-58
2022/06/01 04:32:28;;;;;;;5.70;2.00;;;;;;;15.28;66.57;99815.38;109044;1277;138750;-58
2022/06/01 04:34:55;;;;;;;4.50;2.00;;;;;;;15.31;66.37;99811.73;108980;1277;22438;-58
2022/06/01 04:37:22;;;;;;;4.10;2.00;;;;;;;15.36;66.30;99809.19;108954;1277;138398;-58
2022/06/01 04:39:48;;;;;;;3.90;3.20;;;;;;;15.41;66.61;99807.30;109134;1277;22406;-58
2022/06/01 04:42:15;;;;;;;4.10;2.40;;;;;;;15.47;66.80;99803.56;108994;1278;22611;-58
2022/06/01 04:44:43;;;;;;;5.00;2.40;;;;;;;15.57;66.84;99807.89;109024;1277;137904;-58
2022/06/01 04:47:10;;;;;;;3.40;2.40;;;;;;;15.65;66.81;99808.34;109135;1277;22454;-58
2022/06/01 04:49:37;;;;;;;4.50;2.60;;;;;;;15.76;66.44;99805.69;108957;1278;137716;-58
2022/06/01 04:52:04;;;;;;;3.20;2.20;;;;;;;15.82;66.04;99805.32;109159;1277;23261;-58
2022/06/01 04:54:31;;;;;;;3.10;2.80;;;;;;;15.88;65.76;99808.94;109179;1278;22428;-58
2022/06/01 04:56:58;;;;;;;2.70;2.20;;;;;;;15.92;65.58;99808.41;108959;1277;138492;-59
2022/06/01 04:59:25;;;;;;;5.50;2.50;;;;;;;15.95;65.52;99811.27;109118;1277;22493;-58
2022/06/01 05:01:51;;;;;;;3.20;2.50;;;;;;;15.96;65.67;99808.13;108877;1277;140706;-57
2022/06/01 05:04:18;;;;;;;3.30;2.30;;;;;;;15.97;65.93;99805.60;109144;1277;22489;-58
2022/06/01 05:06:45;;;;;;;3.50;2.60;;;;;;;16.02;65.85;99804.50;109131;1277;22528;-58
2022/06/01 05:09:12;;;;;;;4.70;2.70;;;;;;;16.09;66.13;99803.30;108916;1278;138183;-58
2022/06/01 05:11:39;;;;;;;4.30;2.70;;;;;;;16.20;66.09;99804.30;108874;1278;22466;-59
2022/06/01 05:14:06;;;;;;;3.80;2.50;;;;;;;16.34;65.69;99802.52;108988;1277;138281;-58
2022/06/01 05:16:33;;;;;;;6.30;2.40;;;;;;;16.53;65.25;99799.05;109132;1277;23323;-59
2022/06/01 05:19:00;;;;;;;4.20;2.70;;;;;;;16.77;64.80;99798.66;109026;1277;23619;-59
2022/06/01 05:21:27;;;;;;;3.60;2.80;;;;;;;17.03;64.11;99801.27;109036;1277;138008;-58
2022/06/01 05:23:54;;;;;;;3.90;2.40;;;;;;;17.32;63.42;99798.20;109008;1277;22473;-59
2022/06/01 05:26:20;;;;;;;4.50;2.90;;;;;;;17.64;62.41;99796.14;108843;1278;137807;-58
2022/06/01 05:28:47;;;;;;;8.10;2.90;;;;;;;17.94;61.84;99793.86;108988;1277;23046;-58
2022/06/01 05:31:14;;;;;;;4.30;2.60;;;;;;;18.24;61.06;99793.97;109012;1277;22450;-59
2022/06/01 05:33:45;;;;;;;8.50;2.70;;;;;;;18.48;60.82;99793.12;108990;1278;22519;-59
2022/06/01 05:36:12;;;;;;;4.00;2.60;;;;;;;18.73;59.92;99795.16;107166;1278;22559;-59
2022/06/01 05:38:40;;;;;;;4.70;2.40;;;;;;;18.95;59.02;99788.72;104763;1277;137649;-58
2022/06/01 05:41:07;;;;;;;3.80;2.90;;;;;;;19.17;58.60;99791.96;104483;1281;25496;-58
2022/06/01 05:43:34;;;;;;;3.70;2.70;;;;;;;19.39;57.91;99792.43;108884;1277;139160;-59
2022/06/01 05:46:02;;;;;;;4.80;2.30;;;;;;;19.62;57.37;99790.57;109026;1277;22473;-59
2022/06/01 05:48:29;;;;;;;3.00;2.50;;;;;;;19.80;56.67;99782.92;109099;1277;22556;-58
2022/06/01 05:50:57;;;;;;;4.40;2.30;;;;;;;19.93;56.24;99786.41;108777;1277;137635;-58
2022/06/01 05:53:24;;;;;;;3.70;2.60;;;;;;;20.07;56.04;99786.52;108836;1280;23007;-56
2022/06/01 05:55:51;;;;;;;3.50;2.70;;;;;;;20.21;55.86;99785.99;108890;1277;138450;-59
2022/06/01 05:58:20;;;;;;;2.70;2.30;;;;;;;20.33;55.52;99785.35;108938;1277;22652;-59
2022/06/01 06:00:47;;;;;;;5.90;3.00;;;;;;;20.37;55.19;99786.81;108937;1280;22603;-59
2022/06/01 06:03:15;;;;;;;4.40;2.60;;;;;;;20.33;55.23;99785.83;108794;1277;138034;-59
2022/06/01 06:08:34;;;;;;;3.50;2.50;;;;;;;20.19;55.56;99784.30;104520;1281;139074;-59
2022/06/01 06:11:00;;;;;;;4.40;3.10;;;;;;;20.13;56.04;99787.19;104584;1277;22547;-61
2022/06/01 06:13:27;;;;;;;4.00;3.20;;;;;;;20.12;56.11;99788.60;104411;1281;137821;-59
2022/06/01 06:15:54;;;;;;;4.20;2.90;;;;;;;20.06;56.25;99782.86;104393;1281;23885;-58
2022/06/01 06:18:21;;;;;;;4.80;2.90;;;;;;;19.99;56.39;99787.53;104398;1278;24015;-58
2022/06/01 06:20:48;;;;;;;4.20;2.90;;;;;;;19.93;56.82;99786.73;104552;1278;139200;-59
2022/06/01 06:23:15;;;;;;;3.70;2.80;;;;;;;19.91;57.29;99791.21;104538;1281;22661;-58
2022/06/01 06:25:42;;;;;;;5.80;2.90;;;;;;;19.90;57.70;99789.48;104561;1277;138114;-59
2022/06/01 06:28:09;;;;;;;8.00;3.20;;;;;;;19.89;57.87;99787.52;104398;1278;25151;-58
2022/06/01 06:30:36;;;;;;;6.40;3.70;;;;;;;19.85;57.49;99784.89;103505;1281;26358;-59
2022/06/01 06:33:03;;;;;;;3.90;3.50;;;;;;;19.80;57.51;99783.34;103894;1281;138545;-59
2022/06/01 06:35:30;;;;;;;12.90;4.80;;;;;;;19.72;57.58;99783.48;104894;1281;22718;-60
2022/06/01 06:37:57;;;;;;;6.20;3.80;;;;;;;19.67;58.08;99786.15;104450;1277;138648;-60
2022/06/01 06:40:24;;;;;;;4.00;3.60;;;;;;;19.64;58.55;99780.23;104679;1280;25313;-59
2022/06/01 06:42:52;;;;;;;5.20;3.80;;;;;;;19.63;59.11;99783.19;104657;1278;25540;-61
2022/06/01 06:45:20;;;;;;;4.60;3.70;;;;;;;19.65;59.51;99777.23;104532;1278;137761;-59
2022/06/01 06:47:47;;;;;;;8.80;4.30;;;;;;;19.67;59.31;99776.23;104688;1278;25904;-61
2022/06/01 06:50:15;;;;;;;10.20;4.10;;;;;;;19.66;59.35;99769.91;104407;1281;137411;-61
2022/06/01 06:53:01;;;;;;;6.70;4.50;;;;;;;19.67;60.25;99768.98;104575;1278;24816;-61
2022/06/01 06:55:28;;;;;;;7.80;4.60;;;;;;;19.72;60.24;99772.88;104409;1281;138497;-61
2022/06/01 06:57:55;;;;;;;6.90;5.10;;;;;;;19.73;60.15;99769.09;104629;1280;22563;-61
2022/06/01 07:00:22;;;;;;;8.30;5.60;;;;;;;19.73;60.42;99765.33;104574;1280;22666;-59
2022/06/01 07:02:48;;;;;;;6.00;4.90;;;;;;;19.74;60.99;99762.55;104530;1278;139102;-59
2022/06/01 07:06:08;;;;;;;5.50;4.30;;;;;;;19.79;61.31;99762.27;104700;1278;23130;-60
2022/06/01 07:08:04;;;;;;;6.20;4.60;;;;;;;19.84;61.33;99763.02;104749;1279;138226;-60
2022/06/01 07:10:31;;;;;;;6.20;4.20;;;;;;;19.88;61.28;99765.48;109166;1276;22588;-60
2022/06/01 07:12:58;;;;;;;8.20;5.00;;;;;;;19.90;61.34;99761.77;109247;1276;22646;-61
2022/06/01 07:15:25;;;;;;;5.00;3.90;;;;;;;19.93;61.62;99763.72;109114;1274;139249;-61
2022/06/01 07:17:52;;;;;;;6.20;4.40;;;;;;;20.01;62.04;99760.33;109294;1274;22439;-61
2022/06/01 07:20:19;;;;;;;6.90;4.40;;;;;;;20.10;61.43;99760.08;109270;1274;139875;-61
2022/06/01 07:22:46;;;;;;;6.10;4.40;;;;;;;20.15;61.83;99756.89;109258;1277;23220;-62
2022/06/01 07:25:12;;;;;;;8.60;5.20;;;;;;;20.21;62.34;99751.98;109287;1276;22457;-61
2022/06/01 07:27:39;;;;;;;5.50;4.30;;;;;;;20.32;62.29;99751.86;109095;1276;138955;-62
2022/06/01 07:30:11;;;;;;;5.90;3.80;;;;;;;20.42;61.98;99741.27;109322;1275;22472;-61
2022/06/01 07:32:38;;;;;;;5.50;4.20;;;;;;;20.53;62.20;99746.77;109044;1277;138600;-61
2022/06/01 07:35:06;;;;;;;4.80;4.30;;;;;;;20.59;61.74;99741.73;109257;1277;22424;-61
2022/06/01 07:43:21;;;;;;;6.30;5.40;;;;;;;20.78;61.90;99741.91;108157;1284;138379;-61
2022/06/01 07:45:48;;;;;;;10.40;5.90;;;;;;;20.87;62.27;99744.30;108317;1284;22539;-61
2022/06/01 07:48:17;;;;;;;8.40;5.70;;;;;;;20.96;61.41;99743.56;108491;1284;22542;-62
2022/06/01 07:51:04;;;;;;;6.90;5.40;;;;;;;21.02;61.72;99742.06;108246;1284;137676;-61
2022/06/01 07:53:31;;;;;;;7.00;5.30;;;;;;;21.10;62.16;99744.32;108421;1284;22838;-61
2022/06/01 07:55:58;;;;;;;8.30;5.50;;;;;;;21.15;62.24;99745.99;108269;1284;138202;-62
2022/06/01 07:58:25;;;;;;;13.80;5.90;;;;;;;21.20;62.29;99747.98;108503;1283;22666;-60
2022/06/01 08:00:51;;;;;;;9.70;4.50;;;;;;;21.25;62.16;99744.21;108385;1283;22543;-60
2022/06/01 08:03:20;;;;;;;6.00;4.80;;;;;;;21.29;61.74;99746.61;108279;1284;137995;-60
2022/06/01 08:05:46;;;;;;;8.60;5.00;;;;;;;21.29;61.70;99742.50;108382;1284;22533;-62
2022/06/01 08:08:13;;;;;;;6.60;5.00;;;;;;;21.28;62.14;99742.08;108254;1284;138320;-62
2022/06/01 08:10:40;;;;;;;7.30;4.90;;;;;;;21.32;62.31;99742.97;108317;1284;22541;-62
2022/06/01 08:13:11;;;;;;;7.40;5.00;;;;;;;21.36;61.85;99737.21;108373;1284;22984;-61
2022/06/01 08:15:43;;;;;;;10.00;4.80;;;;;;;21.37;61.58;99733.37;107447;1284;137931;-60
2022/06/01 08:18:12;;;;;;;6.30;5.60;;;;;;;21.38;61.95;99736.21;108907;1277;22470;-60
2022/06/01 08:20:39;;;;;;;8.50;5.80;;;;;;;21.44;61.72;99736.42;109128;1277;138491;-60
2022/06/01 08:23:06;;;;;;;5.50;4.90;;;;;;;21.50;61.43;99737.95;109457;1273;22581;-60
2022/06/01 08:25:33;;;;;;;7.40;5.10;;;;;;;21.56;61.34;99738.29;109302;1274;137844;-60
2022/06/01 08:28:00;;;;;;;7.00;5.20;;;;;;;21.58;60.90;99735.33;109463;1274;22453;-60
2022/06/01 08:30:28;;;;;;;11.50;5.60;;;;;;;21.61;61.15;99737.02;109395;1274;22473;-59
2022/06/01 08:32:55;;;;;;;6.70;5.50;;;;;;;21.63;60.98;99735.52;109144;1277;138415;-60
2022/06/01 08:35:25;;;;;;;8.80;5.70;;;;;;;21.67;61.07;99739.49;109268;1277;23214;-60
2022/06/01 08:37:52;;;;;;;6.60;5.10;;;;;;;21.71;61.12;99740.88;109205;1275;138642;-59
2022/06/01 08:40:20;;;;;;;9.10;5.90;;;;;;;21.74;60.40;99741.59;109175;1276;22456;-60
2022/06/01 08:43:18;;;;;;;8.10;5.80;;;;;;;21.75;60.40;99740.71;109267;1277;22561;-60
2022/06/01 08:45:50;;;;;;;7.80;6.00;;;;;;;21.76;59.94;99737.90;108483;1282;22516;-59
2022/06/01 08:48:19;;;;;;;8.30;5.50;;;;;;;21.75;60.43;99736.51;108365;1282;23475;-59
2022/06/01 08:50:46;;;;;;;7.80;5.30;;;;;;;21.77;60.98;99735.71;108474;1282;138250;-59
2022/06/01 08:53:12;;;;;;;7.20;5.70;;;;;;;21.82;60.93;99732.38;106405;1284;24174;-60
2022/06/01 08:55:47;;;;;;;7.10;5.30;;;;;;;21.88;60.33;99732.32;106178;1281;138897;-60
2022/06/01 08:58:21;;;;;;;7.40;6.10;;;;;;;21.89;59.83;99727.06;106318;1282;22806;-60
2022/06/01 09:00:58;;;;;;;9.30;5.60;;;;;;;21.87;59.80;99723.90;106236;1283;22419;-60
2022/06/01 09:03:38;;;;;;;11.80;6.40;;;;;;;21.88;60.57;99726.64;106074;1283;138263;-59
2022/06/01 09:06:13;;;;;;;7.80;6.00;;;;;;;21.92;60.20;99726.01;106407;1282;22534;-59
2022/06/01 09:08:46;;;;;;;9.70;5.30;;;;;;;21.93;59.55;99726.81;106478;1281;137703;-59
2022/06/01 09:11:18;;;;;;;7.20;5.50;;;;;;;21.89;59.49;99718.27;106657;1283;22534;-59
2022/06/01 09:14:09;;;;;;;7.20;5.30;;;;;;;21.92;59.56;99719.17;106619;1281;139332;-59
2022/06/01 09:16:38;;;;;;;11.60;5.80;;;;;;;21.91;60.30;99719.45;104768;1281;24017;-59
2022/06/01 09:19:07;;;;;;;10.00;5.50;;;;;;;21.95;60.11;99718.20;103455;1281;22736;-59
2022/06/01 09:24:27;;;;;;;7.90;5.80;;;;;;;22.03;60.81;99717.70;103880;1274;22611;-59
2022/06/01 09:27:02;;;;;;;9.90;7.20;;;;;;;22.10;60.73;99710.55;103740;1274;138247;-59
2022/06/01 09:29:32;;;;;;;8.70;5.70;;;;;;;22.16;60.11;99712.35;107220;1274;23380;-59
2022/06/01 09:32:05;;;;;;;8.60;5.30;;;;;;;22.21;59.86;99707.73;107025;1277;139774;-60
2022/06/01 09:34:40;;;;;;;8.90;5.10;;;;;;;22.27;60.04;99702.16;107292;1277;22423;-60
2022/06/01 09:37:22;;;;;;;8.00;5.00;;;;;;;22.29;59.90;99696.31;107157;1276;22396;-60
2022/06/01 09:39:54;;;;;;;9.30;5.50;;;;;;;22.31;60.06;99696.34;107213;1277;22524;-60
2022/06/01 09:42:38;;;;;;;8.40;5.50;;;;;;;22.40;58.70;99696.79;107104;1276;23277;-60
2022/06/01 09:45:37;;;;;;;5.50;4.90;;;;;;;22.47;58.54;99693.70;107154;1274;139413;-60
2022/06/01 09:48:24;;;;;;;7.50;5.70;;;;;;;22.50;59.69;99695.81;107112;1277;22431;-59
2022/06/01 09:51:09;;;;;;;5.20;4.60;;;;;;;22.55;59.14;99693.85;107011;1277;139113;-59
2022/06/01 09:53:41;;;;;;;11.40;5.50;;;;;;;22.59;58.88;99689.89;107207;1276;23580;-60
2022/06/01 09:56:08;;;;;;;11.20;5.50;;;;;;;22.60;58.68;99690.71;106972;1277;138582;-59
2022/06/01 10:07:00;;;;;;;7.00;5.00;;;;;;;22.65;59.36;99684.27;107173;1275;23614;-60
2022/06/01 10:09:29;;;;;;;7.90;6.00;;;;;;;22.69;59.42;99682.52;107066;1277;139238;-60
2022/06/01 10:12:34;;;;;;;7.20;5.50;;;;;;;22.74;59.33;99682.61;107038;1276;23640;-60
2022/06/01 10:15:02;;;;;;;12.10;6.80;;;;;;;22.81;58.66;99685.42;107107;1277;137496;-59
2022/06/01 10:17:31;;;;;;;7.80;5.20;;;;;;;22.84;58.21;99682.60;103975;1277;22854;-60
2022/06/01 10:20:06;;;;;;;7.50;6.10;;;;;;;22.83;58.40;99677.66;103452;1276;139183;-59
2022/06/01 10:22:35;;;;;;;;;;;;;;;22.89;58.54;99679.96;103838;1274;22549;-59
2022/06/01 10:25:14;;;;;;;8.10;5.30;;;;;;;22.93;58.22;99678.82;103827;1274;25507;-59
2022/06/01 10:27:47;;;;;;;7.90;5.50;;;;;;;22.98;58.26;99676.11;103842;1274;22802;-60
2022/06/01 10:30:13;;;;;;;8.40;5.20;;;;;;;23.03;57.22;99674.41;103909;1274;23965;-59
2022/06/01 10:32:43;;;;;;;6.20;4.60;;;;;;;23.05;57.14;99670.98;103804;1274;139081;-59
2022/06/01 10:35:15;;;;;;;6.30;5.30;;;;;;;23.09;57.44;99672.88;107230;1274;22599;-59
2022/06/01 10:37:55;;;;;;;9.20;5.70;;;;;;;23.11;56.77;99668.60;107148;1274;139259;-61
2022/06/01 10:40:51;;;;;;;8.30;4.80;;;;;;;23.14;56.21;99664.69;107230;1274;22859;-59
2022/06/01 10:43:34;;;;;;;7.50;4.20;;;;;;;23.19;55.89;99664.73;107100;1274;161207;-59
2022/06/01 10:46:30;;;;;;;8.20;4.90;;;;;;;23.28;56.32;99666.97;107303;1274;23727;-59
2022/06/01 10:49:21;;;;;;;5.20;4.00;;;;;;;23.39;55.08;99661.81;106826;1282;23406;-59
2022/06/01 10:52:15;;;;;;;6.40;4.30;;;;;;;23.48;53.96;99658.41;106465;1281;24688;-59
2022/06/01 10:54:54;;;;;;;7.60;4.70;;;;;;;23.53;53.83;99652.59;106488;1281;25224;-59
2022/06/01 10:57:21;;;;;;;5.90;4.10;;;;;;;23.56;54.53;99648.34;106509;1282;138991;-60
2022/06/01 10:59:48;;;;;;;5.30;3.60;;;;;;;23.62;55.53;99649.58;106605;1282;24199;-59
2022/06/01 11:02:33;;;;;;;9.30;4.30;;;;;;;23.67;55.16;99649.13;106571;1283;139201;-59
2022/06/01 11:05:23;;;;;;;5.10;3.70;;;;;;;23.72;55.14;99645.73;106275;1282;33156;-59
2022/06/01 11:08:21;;;;;;;8.70;5.00;;;;;;;23.77;54.13;99643.21;106255;1283;139513;-59
2022/06/01 11:11:33;;;;;;;9.90;3.90;;;;;;;23.81;54.03;99638.91;106575;1282;23689;-59
2022/06/01 11:14:03;;;;;;;8.10;4.70;;;;;;;23.85;54.51;99636.44;106489;1283;22434;-61
2022/06/01 11:16:52;;;;;;;5.90;3.60;;;;;;;23.87;53.06;99630.97;106342;1282;23013;-60
2022/06/01 11:19:37;;;;;;;4.80;3.90;;;;;;;23.92;52.85;99635.04;106274;1282;139373;-59
2022/06/01 11:22:33;;;;;;;5.20;3.90;;;;;;;23.93;53.03;99632.44;106510;1283;23007;-59
2022/06/01 11:25:19;;;;;;;7.40;4.30;;;;;;;23.94;52.93;99631.29;106315;1284;138849;-60
2022/06/01 11:27:56;;;;;;;7.20;4.00;;;;;;;23.93;52.95;99631.16;106927;1278;24646;-59
2022/06/01 11:30:31;;;;;;;4.30;3.90;;;;;;;23.95;53.09;99629.63;106813;1276;139407;-60
2022/06/01 11:33:09;;;;;;;6.00;3.20;;;;;;;23.93;52.74;99625.27;107066;1277;22390;-60
2022/06/01 11:35:45;;;;;;;4.80;4.00;;;;;;;23.91;52.97;99630.52;107024;1276;137875;-60
2022/06/01 11:38:14;;;;;;;6.40;3.90;;;;;;;23.87;52.48;99625.29;106959;1277;22433;-59
2022/06/01 11:40:58;;;;;;;6.10;3.90;;;;;;;23.84;52.76;99629.80;107058;1277;22483;-60
2022/06/01 11:43:32;;;;;;;5.00;3.50;;;;;;;23.82;52.42;99625.90;107027;1274;137827;-60
2022/06/01 11:46:02;;;;;;;8.20;4.00;;;;;;;23.83;52.90;99623.33;107083;1277;22374;-60
2022/06/01 11:48:33;;;;;;;7.30;3.70;;;;;;;23.86;52.80;99621.43;107025;1276;138457;-60
2022/06/01 11:51:12;;;;;;;6.50;4.10;;;;;;;23.87;52.89;99621.33;107180;1276;22454;-60
2022/06/01 11:53:54;;;;;;;6.80;4.10;;;;;;;23.91;53.06;99621.63;106946;1276;138072;-60
2022/06/01 11:56:22;;;;;;;4.90;3.60;;;;;;;23.94;52.62;99618.56;107153;1276;23199;-61
2022/06/01 11:59:11;;;;;;;5.50;3.70;;;;;;;23.99;52.87;99616.88;107051;1277;23155;-60
2022/06/01 12:01:43;;;;;;;6.10;3.40;;;;;;;24.06;53.04;99620.86;106958;1276;138051;-60
2022/06/01 12:04:11;;;;;;;8.20;4.10;;;;;;;24.10;52.99;99614.24;106970;1276;22453;-60
2022/06/01 12:06:46;;;;;;;5.40;3.90;;;;;;;24.14;52.57;99617.71;106984;1276;139740;-61